sensor_id;sensor_type;location;lat;lon;timestamp;P1;durP1;ratioP1;P2;durP2;ratioP2
1204;SDS011;592;48.764;9.174;2023-03-04T00:01:21;45.07;;;24.90;;
1204;SDS011;592;48.764;9.174;2023-03-04T00:03:47;45.23;;;25.47;;
1204;SDS011;592;48.764;9.174;2023-03-04T00:06:14;40.70;;;24.17;;
1204;SDS011;592;48.764;9.174;2023-03-04T00:08:42;40.33;;;24.00;;
1204;SDS011;592;48.764;9.174;2023-03-04T00:11:09;42.70;;;23.33;;
1204;SDS011;592;48.764;9.174;2023-03-04T00:13:35;42.23;;;24.07;;
1204;SDS011;592;48.764;9.174;2023-03-04T00:16:02;41.77;;;24.33;;
1204;SDS011;592;48.764;9.174;2023-03-04T00:18:29;42.23;;;25.07;;
1204;SDS011;592;48.764;9.174;2023-03-04T00:20:56;41.53;;;22.37;;
1204;SDS011;592;48.764;9.174;2023-03-04T00:23:22;36.47;;;21.93;;
1204;SDS011;592;48.764;9.174;2023-03-04T00:25:50;42.57;;;22.20;;
1204;SDS011;592;48.764;9.174;2023-03-04T00:28:17;40.17;;;24.50;;
1204;SDS011;592;48.764;9.174;2023-03-04T00:30:44;40.73;;;23.27;;
1204;SDS011;592;48.764;9.174;2023-03-04T00:33:10;40.70;;;22.77;;
1204;SDS011;592;48.764;9.174;2023-03-04T00:35:37;39.33;;;25.00;;
1204;SDS011;592;48.764;9.174;2023-03-04T00:38:04;42.67;;;23.03;;
1204;SDS011;592;48.764;9.174;2023-03-04T00:40:31;44.40;;;25.50;;
1204;SDS011;592;48.764;9.174;2023-03-04T00:42:59;41.23;;;23.00;;
1204;SDS011;592;48.764;9.174;2023-03-04T00:45:25;44.37;;;23.80;;
1204;SDS011;592;48.764;9.174;2023-03-04T00:47:52;44.37;;;21.97;;
1204;SDS011;592;48.764;9.174;2023-03-04T00:50:19;43.50;;;24.90;;
1204;SDS011;592;48.764;9.174;2023-03-04T00:52:45;43.40;;;23.70;;
1204;SDS011;592;48.764;9.174;2023-03-04T00:55:12;41.10;;;22.83;;
1204;SDS011;592;48.764;9.174;2023-03-04T00:57:39;42.43;;;22.93;;
1204;SDS011;592;48.764;9.174;2023-03-04T01:00:07;41.17;;;24.07;;
1204;SDS011;592;48.764;9.174;2023-03-04T01:02:35;40.33;;;23.30;;
1204;SDS011;592;48.764;9.174;2023-03-04T01:05:02;42.87;;;22.83;;
1204;SDS011;592;48.764;9.174;2023-03-04T01:07:29;38.87;;;22.60;;
1204;SDS011;592;48.764;9.174;2023-03-04T01:09:55;39.83;;;22.27;;
1204;SDS011;592;48.764;9.174;2023-03-04T01:12:22;40.93;;;23.77;;
1204;SDS011;592;48.764;9.174;2023-03-04T01:14:49;41.77;;;22.90;;
1204;SDS011;592;48.764;9.174;2023-03-04T01:17:17;38.67;;;22.33;;
1204;SDS011;592;48.764;9.174;2023-03-04T01:19:43;40.30;;;23.50;;
1204;SDS011;592;48.764;9.174;2023-03-04T01:22:10;38.00;;;23.67;;
1204;SDS011;592;48.764;9.174;2023-03-04T01:24:39;40.57;;;24.37;;
1204;SDS011;592;48.764;9.174;2023-03-04T01:27:05;39.43;;;22.33;;
1204;SDS011;592;48.764;9.174;2023-03-04T01:29:32;45.00;;;24.10;;
1204;SDS011;592;48.764;9.174;2023-03-04T01:31:59;41.07;;;23.70;;
1204;SDS011;592;48.764;9.174;2023-03-04T01:34:27;46.43;;;24.27;;
1204;SDS011;592;48.764;9.174;2023-03-04T01:36:53;41.83;;;24.17;;
1204;SDS011;592;48.764;9.174;2023-03-04T01:39:20;43.67;;;25.00;;
1204;SDS011;592;48.764;9.174;2023-03-04T01:41:47;44.87;;;25.73;;
1204;SDS011;592;48.764;9.174;2023-03-04T01:44:13;40.60;;;24.40;;
1204;SDS011;592;48.764;9.174;2023-03-04T01:46:41;42.27;;;23.47;;
1204;SDS011;592;48.764;9.174;2023-03-04T01:49:13;36.77;;;21.83;;
1204;SDS011;592;48.764;9.174;2023-03-04T01:51:42;43.20;;;22.40;;
1204;SDS011;592;48.764;9.174;2023-03-04T01:54:11;36.73;;;22.50;;
1204;SDS011;592;48.764;9.174;2023-03-04T01:56:38;39.43;;;22.23;;
1204;SDS011;592;48.764;9.174;2023-03-04T01:59:05;38.40;;;22.83;;
1204;SDS011;592;48.764;9.174;2023-03-04T02:01:34;38.13;;;21.10;;
1204;SDS011;592;48.764;9.174;2023-03-04T02:04:02;38.43;;;22.77;;
1204;SDS011;592;48.764;9.174;2023-03-04T02:06:29;43.37;;;22.47;;
1204;SDS011;592;48.764;9.174;2023-03-04T02:08:58;45.90;;;23.77;;
1204;SDS011;592;48.764;9.174;2023-03-04T02:11:24;40.33;;;22.50;;
1204;SDS011;592;48.764;9.174;2023-03-04T02:13:51;45.40;;;22.83;;
1204;SDS011;592;48.764;9.174;2023-03-04T02:16:18;42.90;;;23.37;;
1204;SDS011;592;48.764;9.174;2023-03-04T02:18:45;40.63;;;22.83;;
1204;SDS011;592;48.764;9.174;2023-03-04T02:21:13;42.47;;;21.93;;
1204;SDS011;592;48.764;9.174;2023-03-04T02:23:46;40.47;;;22.37;;
1204;SDS011;592;48.764;9.174;2023-03-04T02:26:21;41.97;;;24.77;;
1204;SDS011;592;48.764;9.174;2023-03-04T02:28:50;38.30;;;21.87;;
1204;SDS011;592;48.764;9.174;2023-03-04T02:31:22;40.40;;;22.23;;
1204;SDS011;592;48.764;9.174;2023-03-04T02:33:51;38.90;;;22.97;;
1204;SDS011;592;48.764;9.174;2023-03-04T02:36:19;42.30;;;23.50;;
1204;SDS011;592;48.764;9.174;2023-03-04T02:38:46;37.87;;;22.30;;
1204;SDS011;592;48.764;9.174;2023-03-04T02:41:14;38.90;;;22.33;;
1204;SDS011;592;48.764;9.174;2023-03-04T02:43:46;46.83;;;25.33;;
1204;SDS011;592;48.764;9.174;2023-03-04T02:46:15;36.33;;;21.13;;
1204;SDS011;592;48.764;9.174;2023-03-04T02:48:42;40.33;;;22.03;;
1204;SDS011;592;48.764;9.174;2023-03-04T02:51:09;38.37;;;21.10;;
1204;SDS011;592;48.764;9.174;2023-03-04T02:53:36;36.97;;;20.87;;
1204;SDS011;592;48.764;9.174;2023-03-04T02:56:03;40.90;;;21.40;;
1204;SDS011;592;48.764;9.174;2023-03-04T02:58:30;37.97;;;20.40;;
1204;SDS011;592;48.764;9.174;2023-03-04T03:00:58;38.63;;;20.60;;
1204;SDS011;592;48.764;9.174;2023-03-04T03:03:25;39.13;;;20.90;;
1204;SDS011;592;48.764;9.174;2023-03-04T03:05:52;40.20;;;21.70;;
1204;SDS011;592;48.764;9.174;2023-03-04T03:08:19;41.50;;;22.20;;
1204;SDS011;592;48.764;9.174;2023-03-04T03:10:46;39.07;;;21.80;;
1204;SDS011;592;48.764;9.174;2023-03-04T03:13:12;40.40;;;22.50;;
1204;SDS011;592;48.764;9.174;2023-03-04T03:15:39;37.13;;;21.90;;
1204;SDS011;592;48.764;9.174;2023-03-04T03:18:07;40.43;;;22.17;;
1204;SDS011;592;48.764;9.174;2023-03-04T03:20:34;38.53;;;20.90;;
1204;SDS011;592;48.764;9.174;2023-03-04T03:23:01;34.13;;;18.77;;
1204;SDS011;592;48.764;9.174;2023-03-04T03:25:28;34.87;;;20.90;;
1204;SDS011;592;48.764;9.174;2023-03-04T03:27:55;38.33;;;21.27;;
1204;SDS011;592;48.764;9.174;2023-03-04T03:30:22;35.97;;;20.80;;
1204;SDS011;592;48.764;9.174;2023-03-04T03:32:49;39.80;;;22.77;;
1204;SDS011;592;48.764;9.174;2023-03-04T03:35:17;40.87;;;23.50;;
1204;SDS011;592;48.764;9.174;2023-03-04T03:37:44;38.00;;;21.53;;
1204;SDS011;592;48.764;9.174;2023-03-04T03:40:13;36.83;;;21.40;;
1204;SDS011;592;48.764;9.174;2023-03-04T03:42:40;37.17;;;20.17;;
1204;SDS011;592;48.764;9.174;2023-03-04T03:45:07;34.70;;;19.17;;
1204;SDS011;592;48.764;9.174;2023-03-04T03:47:34;33.83;;;20.17;;
1204;SDS011;592;48.764;9.174;2023-03-04T03:50:01;36.00;;;21.43;;
1204;SDS011;592;48.764;9.174;2023-03-04T03:52:29;39.10;;;21.77;;
1204;SDS011;592;48.764;9.174;2023-03-04T03:54:56;42.23;;;21.67;;
1204;SDS011;592;48.764;9.174;2023-03-04T03:57:25;35.70;;;20.70;;
1204;SDS011;592;48.764;9.174;2023-03-04T03:59:52;34.70;;;20.70;;
1204;SDS011;592;48.764;9.174;2023-03-04T04:02:19;39.87;;;21.20;;
1204;SDS011;592;48.764;9.174;2023-03-04T04:04:46;37.40;;;20.30;;
1204;SDS011;592;48.764;9.174;2023-03-04T04:07:12;36.30;;;21.07;;
1204;SDS011;592;48.764;9.174;2023-03-04T04:09:40;34.30;;;18.70;;
1204;SDS011;592;48.764;9.174;2023-03-04T04:12:07;34.73;;;20.10;;
1204;SDS011;592;48.764;9.174;2023-03-04T04:14:34;34.80;;;20.90;;
1204;SDS011;592;48.764;9.174;2023-03-04T04:17:01;31.80;;;19.67;;
1204;SDS011;592;48.764;9.174;2023-03-04T04:19:27;36.70;;;20.23;;
1204;SDS011;592;48.764;9.174;2023-03-04T04:21:54;29.50;;;17.67;;
1204;SDS011;592;48.764;9.174;2023-03-04T04:24:21;33.00;;;19.03;;
1204;SDS011;592;48.764;9.174;2023-03-04T04:26:49;41.03;;;21.17;;
1204;SDS011;592;48.764;9.174;2023-03-04T04:29:16;37.60;;;20.10;;
1204;SDS011;592;48.764;9.174;2023-03-04T04:31:42;35.77;;;19.80;;
1204;SDS011;592;48.764;9.174;2023-03-04T04:34:09;34.97;;;19.80;;
1204;SDS011;592;48.764;9.174;2023-03-04T04:36:36;35.97;;;19.20;;
1204;SDS011;592;48.764;9.174;2023-03-04T04:39:03;36.13;;;19.73;;
1204;SDS011;592;48.764;9.174;2023-03-04T04:41:30;34.50;;;20.13;;
1204;SDS011;592;48.764;9.174;2023-03-04T04:44:05;33.90;;;19.23;;
1204;SDS011;592;48.764;9.174;2023-03-04T04:46:33;38.60;;;20.37;;
1204;SDS011;592;48.764;9.174;2023-03-04T04:49:00;34.83;;;19.47;;
1204;SDS011;592;48.764;9.174;2023-03-04T04:51:27;35.90;;;20.60;;
1204;SDS011;592;48.764;9.174;2023-03-04T04:53:54;37.80;;;19.27;;
1204;SDS011;592;48.764;9.174;2023-03-04T04:56:21;35.10;;;19.63;;
1204;SDS011;592;48.764;9.174;2023-03-04T04:58:50;35.23;;;19.87;;
1204;SDS011;592;48.764;9.174;2023-03-04T05:01:19;37.07;;;19.70;;
1204;SDS011;592;48.764;9.174;2023-03-04T05:03:46;37.83;;;18.90;;
1204;SDS011;592;48.764;9.174;2023-03-04T05:06:13;37.20;;;19.97;;
1204;SDS011;592;48.764;9.174;2023-03-04T05:08:41;42.83;;;20.53;;
1204;SDS011;592;48.764;9.174;2023-03-04T05:11:07;39.53;;;19.93;;
1204;SDS011;592;48.764;9.174;2023-03-04T05:13:34;36.97;;;20.77;;
1204;SDS011;592;48.764;9.174;2023-03-04T05:16:01;31.53;;;19.90;;
1204;SDS011;592;48.764;9.174;2023-03-04T05:18:30;36.90;;;19.50;;
1204;SDS011;592;48.764;9.174;2023-03-04T05:20:57;37.60;;;20.60;;
1204;SDS011;592;48.764;9.174;2023-03-04T05:23:26;40.13;;;18.97;;
1204;SDS011;592;48.764;9.174;2023-03-04T05:25:54;38.50;;;19.13;;
1204;SDS011;592;48.764;9.174;2023-03-04T05:28:20;36.00;;;19.70;;
1204;SDS011;592;48.764;9.174;2023-03-04T05:30:47;35.13;;;19.33;;
1204;SDS011;592;48.764;9.174;2023-03-04T05:33:14;35.97;;;19.90;;
1204;SDS011;592;48.764;9.174;2023-03-04T05:35:44;35.03;;;19.93;;
1204;SDS011;592;48.764;9.174;2023-03-04T05:38:13;38.10;;;21.73;;
1204;SDS011;592;48.764;9.174;2023-03-04T05:40:41;32.13;;;18.67;;
1204;SDS011;592;48.764;9.174;2023-03-04T05:43:08;33.30;;;18.93;;
1204;SDS011;592;48.764;9.174;2023-03-04T05:45:36;36.20;;;21.90;;
1204;SDS011;592;48.764;9.174;2023-03-04T05:48:03;36.70;;;20.87;;
1204;SDS011;592;48.764;9.174;2023-03-04T05:50:29;35.37;;;20.00;;
1204;SDS011;592;48.764;9.174;2023-03-04T05:52:58;40.93;;;21.30;;
1204;SDS011;592;48.764;9.174;2023-03-04T05:55:25;36.10;;;19.83;;
1204;SDS011;592;48.764;9.174;2023-03-04T05:57:54;33.40;;;18.77;;
1204;SDS011;592;48.764;9.174;2023-03-04T06:00:20;34.07;;;19.40;;
1204;SDS011;592;48.764;9.174;2023-03-04T06:02:47;31.80;;;17.50;;
1204;SDS011;592;48.764;9.174;2023-03-04T06:05:14;37.07;;;20.20;;
1204;SDS011;592;48.764;9.174;2023-03-04T06:07:41;38.47;;;19.67;;
1204;SDS011;592;48.764;9.174;2023-03-04T06:10:10;37.53;;;19.80;;
1204;SDS011;592;48.764;9.174;2023-03-04T06:12:37;35.83;;;19.40;;
1204;SDS011;592;48.764;9.174;2023-03-04T06:15:05;32.43;;;18.40;;
1204;SDS011;592;48.764;9.174;2023-03-04T06:17:34;36.50;;;20.00;;
1204;SDS011;592;48.764;9.174;2023-03-04T06:20:01;34.57;;;20.30;;
1204;SDS011;592;48.764;9.174;2023-03-04T06:22:29;39.20;;;20.80;;
1204;SDS011;592;48.764;9.174;2023-03-04T06:24:56;39.20;;;19.97;;
1204;SDS011;592;48.764;9.174;2023-03-04T06:27:24;33.10;;;19.17;;
1204;SDS011;592;48.764;9.174;2023-03-04T06:29:51;37.67;;;19.17;;
1204;SDS011;592;48.764;9.174;2023-03-04T06:32:17;41.70;;;20.60;;
1204;SDS011;592;48.764;9.174;2023-03-04T06:34:44;38.07;;;20.40;;
1204;SDS011;592;48.764;9.174;2023-03-04T06:37:11;34.40;;;19.27;;
1204;SDS011;592;48.764;9.174;2023-03-04T06:39:37;34.37;;;18.63;;
1204;SDS011;592;48.764;9.174;2023-03-04T06:42:04;35.87;;;19.33;;
1204;SDS011;592;48.764;9.174;2023-03-04T06:44:32;38.30;;;19.03;;
1204;SDS011;592;48.764;9.174;2023-03-04T06:46:59;37.30;;;20.30;;
1204;SDS011;592;48.764;9.174;2023-03-04T06:49:26;40.60;;;19.23;;
1204;SDS011;592;48.764;9.174;2023-03-04T06:51:52;36.33;;;18.47;;
1204;SDS011;592;48.764;9.174;2023-03-04T06:54:19;37.70;;;19.80;;
1204;SDS011;592;48.764;9.174;2023-03-04T06:56:46;32.10;;;17.53;;
1204;SDS011;592;48.764;9.174;2023-03-04T06:59:12;36.50;;;19.27;;
1204;SDS011;592;48.764;9.174;2023-03-04T07:01:41;42.03;;;20.33;;
1204;SDS011;592;48.764;9.174;2023-03-04T07:04:08;41.33;;;20.37;;
1204;SDS011;592;48.764;9.174;2023-03-04T07:06:34;40.13;;;20.33;;
1204;SDS011;592;48.764;9.174;2023-03-04T07:09:01;41.73;;;20.53;;
1204;SDS011;592;48.764;9.174;2023-03-04T07:11:28;43.07;;;20.80;;
1204;SDS011;592;48.764;9.174;2023-03-04T07:13:54;39.40;;;21.20;;
1204;SDS011;592;48.764;9.174;2023-03-04T07:16:22;36.23;;;18.63;;
1204;SDS011;592;48.764;9.174;2023-03-04T07:18:50;43.13;;;21.50;;
1204;SDS011;592;48.764;9.174;2023-03-04T07:21:17;32.50;;;17.77;;
1204;SDS011;592;48.764;9.174;2023-03-04T07:23:44;36.83;;;20.80;;
1204;SDS011;592;48.764;9.174;2023-03-04T07:26:12;37.47;;;18.87;;
1204;SDS011;592;48.764;9.174;2023-03-04T07:28:38;35.77;;;18.70;;
1204;SDS011;592;48.764;9.174;2023-03-04T07:31:07;38.63;;;20.40;;
1204;SDS011;592;48.764;9.174;2023-03-04T07:33:35;37.30;;;20.73;;
1204;SDS011;592;48.764;9.174;2023-03-04T07:36:03;37.90;;;19.67;;
1204;SDS011;592;48.764;9.174;2023-03-04T07:38:30;35.60;;;19.00;;
1204;SDS011;592;48.764;9.174;2023-03-04T07:40:57;40.80;;;19.70;;
1204;SDS011;592;48.764;9.174;2023-03-04T07:43:24;36.40;;;18.73;;
1204;SDS011;592;48.764;9.174;2023-03-04T07:45:51;38.87;;;20.17;;
1204;SDS011;592;48.764;9.174;2023-03-04T07:48:18;36.20;;;17.77;;
1204;SDS011;592;48.764;9.174;2023-03-04T07:50:44;33.77;;;18.60;;
1204;SDS011;592;48.764;9.174;2023-03-04T07:53:12;36.50;;;18.40;;
1204;SDS011;592;48.764;9.174;2023-03-04T07:55:39;35.30;;;19.20;;
1204;SDS011;592;48.764;9.174;2023-03-04T07:58:06;38.77;;;18.80;;
1204;SDS011;592;48.764;9.174;2023-03-04T08:00:32;38.77;;;19.87;;
1204;SDS011;592;48.764;9.174;2023-03-04T08:02:59;36.37;;;17.50;;
1204;SDS011;592;48.764;9.174;2023-03-04T08:05:26;38.17;;;19.60;;
1204;SDS011;592;48.764;9.174;2023-03-04T08:07:52;36.50;;;20.10;;
1204;SDS011;592;48.764;9.174;2023-03-04T08:10:23;37.10;;;19.23;;
1204;SDS011;592;48.764;9.174;2023-03-04T08:12:49;41.07;;;20.70;;
1204;SDS011;592;48.764;9.174;2023-03-04T08:15:16;41.40;;;20.10;;
1204;SDS011;592;48.764;9.174;2023-03-04T08:17:43;33.27;;;17.57;;
1204;SDS011;592;48.764;9.174;2023-03-04T08:20:10;36.07;;;19.07;;
1204;SDS011;592;48.764;9.174;2023-03-04T08:22:37;40.30;;;20.43;;
1204;SDS011;592;48.764;9.174;2023-03-04T08:25:04;42.77;;;19.70;;
1204;SDS011;592;48.764;9.174;2023-03-04T08:27:32;35.03;;;18.83;;
1204;SDS011;592;48.764;9.174;2023-03-04T08:30:01;36.87;;;19.47;;
1204;SDS011;592;48.764;9.174;2023-03-04T08:32:28;43.33;;;18.80;;
1204;SDS011;592;48.764;9.174;2023-03-04T08:34:54;38.97;;;18.73;;
1204;SDS011;592;48.764;9.174;2023-03-04T08:37:21;37.73;;;19.47;;
1204;SDS011;592;48.764;9.174;2023-03-04T08:39:48;38.20;;;18.70;;
1204;SDS011;592;48.764;9.174;2023-03-04T08:42:14;34.73;;;19.20;;
1204;SDS011;592;48.764;9.174;2023-03-04T08:44:42;39.47;;;20.30;;
1204;SDS011;592;48.764;9.174;2023-03-04T08:47:09;37.63;;;19.03;;
1204;SDS011;592;48.764;9.174;2023-03-04T08:49:36;39.63;;;18.90;;
1204;SDS011;592;48.764;9.174;2023-03-04T08:52:03;37.73;;;19.23;;
1204;SDS011;592;48.764;9.174;2023-03-04T08:54:30;36.33;;;19.60;;
1204;SDS011;592;48.764;9.174;2023-03-04T08:56:56;40.43;;;20.20;;
1204;SDS011;592;48.764;9.174;2023-03-04T08:59:23;39.43;;;18.97;;
1204;SDS011;592;48.764;9.174;2023-03-04T09:01:51;41.67;;;20.60;;
1204;SDS011;592;48.764;9.174;2023-03-04T09:04:18;44.17;;;20.77;;
1204;SDS011;592;48.764;9.174;2023-03-04T09:06:44;43.17;;;22.03;;
1204;SDS011;592;48.764;9.174;2023-03-04T09:09:11;43.37;;;20.00;;
1204;SDS011;592;48.764;9.174;2023-03-04T09:11:38;38.27;;;18.93;;
1204;SDS011;592;48.764;9.174;2023-03-04T09:14:04;40.97;;;20.07;;
1204;SDS011;592;48.764;9.174;2023-03-04T09:16:31;32.37;;;18.60;;
1204;SDS011;592;48.764;9.174;2023-03-04T09:19:00;34.63;;;18.07;;
1204;SDS011;592;48.764;9.174;2023-03-04T09:21:26;34.13;;;18.33;;
1204;SDS011;592;48.764;9.174;2023-03-04T09:23:53;38.43;;;19.50;;
1204;SDS011;592;48.764;9.174;2023-03-04T09:26:20;35.37;;;19.30;;
1204;SDS011;592;48.764;9.174;2023-03-04T09:28:49;37.37;;;20.10;;
1204;SDS011;592;48.764;9.174;2023-03-04T09:31:16;33.97;;;18.50;;
1204;SDS011;592;48.764;9.174;2023-03-04T09:33:43;35.70;;;17.93;;
1204;SDS011;592;48.764;9.174;2023-03-04T09:36:12;34.37;;;18.53;;
1204;SDS011;592;48.764;9.174;2023-03-04T09:38:40;34.97;;;18.30;;
1204;SDS011;592;48.764;9.174;2023-03-04T09:41:08;38.57;;;19.17;;
1204;SDS011;592;48.764;9.174;2023-03-04T09:43:39;45.70;;;19.53;;
1204;SDS011;592;48.764;9.174;2023-03-04T09:46:09;32.97;;;17.40;;
1204;SDS011;592;48.764;9.174;2023-03-04T09:48:42;34.37;;;18.47;;
1204;SDS011;592;48.764;9.174;2023-03-04T09:51:18;38.30;;;19.90;;
1204;SDS011;592;48.764;9.174;2023-03-04T09:53:50;36.77;;;18.33;;
1204;SDS011;592;48.764;9.174;2023-03-04T09:56:30;35.03;;;19.40;;
1204;SDS011;592;48.764;9.174;2023-03-04T09:59:02;37.83;;;20.27;;
1204;SDS011;592;48.764;9.174;2023-03-04T10:01:40;35.63;;;19.13;;
1204;SDS011;592;48.764;9.174;2023-03-04T10:04:12;42.17;;;21.60;;
1204;SDS011;592;48.764;9.174;2023-03-04T10:06:44;34.63;;;19.50;;
1204;SDS011;592;48.764;9.174;2023-03-04T10:09:18;38.83;;;20.83;;
1204;SDS011;592;48.764;9.174;2023-03-04T10:11:58;39.87;;;21.77;;
1204;SDS011;592;48.764;9.174;2023-03-04T10:14:33;36.90;;;22.13;;
1204;SDS011;592;48.764;9.174;2023-03-04T10:17:17;37.27;;;20.47;;
1204;SDS011;592;48.764;9.174;2023-03-04T10:19:50;39.37;;;21.27;;
1204;SDS011;592;48.764;9.174;2023-03-04T10:22:27;40.60;;;20.90;;
1204;SDS011;592;48.764;9.174;2023-03-04T10:25:15;46.23;;;22.57;;
1204;SDS011;592;48.764;9.174;2023-03-04T10:27:48;42.17;;;21.53;;
1204;SDS011;592;48.764;9.174;2023-03-04T10:30:18;41.60;;;23.63;;
1204;SDS011;592;48.764;9.174;2023-03-04T10:32:52;47.23;;;21.90;;
1204;SDS011;592;48.764;9.174;2023-03-04T10:35:19;37.83;;;20.87;;
1204;SDS011;592;48.764;9.174;2023-03-04T10:37:52;43.20;;;22.57;;
1204;SDS011;592;48.764;9.174;2023-03-04T10:40:20;40.67;;;23.27;;
1204;SDS011;592;48.764;9.174;2023-03-04T10:42:49;41.53;;;21.90;;
1204;SDS011;592;48.764;9.174;2023-03-04T10:45:21;47.23;;;23.83;;
1204;SDS011;592;48.764;9.174;2023-03-04T10:47:53;44.53;;;24.20;;
1204;SDS011;592;48.764;9.174;2023-03-04T10:50:21;49.13;;;24.70;;
1204;SDS011;592;48.764;9.174;2023-03-04T10:52:49;45.10;;;23.87;;
1204;SDS011;592;48.764;9.174;2023-03-04T10:55:20;44.47;;;24.23;;
1204;SDS011;592;48.764;9.174;2023-03-04T10:57:49;76.87;;;27.67;;
1204;SDS011;592;48.764;9.174;2023-03-04T11:00:23;42.73;;;23.60;;
1204;SDS011;592;48.764;9.174;2023-03-04T11:02:52;46.90;;;25.30;;
1204;SDS011;592;48.764;9.174;2023-03-04T11:05:50;47.37;;;25.73;;
1204;SDS011;592;48.764;9.174;2023-03-04T11:08:18;48.13;;;24.70;;
1204;SDS011;592;48.764;9.174;2023-03-04T11:10:48;45.17;;;25.00;;
1204;SDS011;592;48.764;9.174;2023-03-04T11:13:16;45.50;;;25.90;;
1204;SDS011;592;48.764;9.174;2023-03-04T11:15:49;52.83;;;27.00;;
1204;SDS011;592;48.764;9.174;2023-03-04T11:18:18;55.50;;;27.30;;
1204;SDS011;592;48.764;9.174;2023-03-04T11:20:48;51.77;;;27.00;;
1204;SDS011;592;48.764;9.174;2023-03-04T11:23:16;51.70;;;28.30;;
1204;SDS011;592;48.764;9.174;2023-03-04T11:25:51;50.40;;;27.40;;
1204;SDS011;592;48.764;9.174;2023-03-04T11:28:25;51.27;;;26.70;;
1204;SDS011;592;48.764;9.174;2023-03-04T11:31:00;52.87;;;27.17;;
1204;SDS011;592;48.764;9.174;2023-03-04T11:33:32;53.77;;;28.03;;
1204;SDS011;592;48.764;9.174;2023-03-04T11:36:11;49.97;;;28.20;;
1204;SDS011;592;48.764;9.174;2023-03-04T11:38:54;54.73;;;30.83;;
1204;SDS011;592;48.764;9.174;2023-03-04T11:41:25;50.53;;;27.87;;
1204;SDS011;592;48.764;9.174;2023-03-04T11:43:56;49.77;;;27.83;;
1204;SDS011;592;48.764;9.174;2023-03-04T11:46:35;53.37;;;29.23;;
1204;SDS011;592;48.764;9.174;2023-03-04T11:49:28;58.00;;;32.00;;
1204;SDS011;592;48.764;9.174;2023-03-04T11:52:24;57.90;;;29.83;;
1204;SDS011;592;48.764;9.174;2023-03-04T11:55:02;54.07;;;29.43;;
1204;SDS011;592;48.764;9.174;2023-03-04T11:57:43;57.77;;;30.40;;
1204;SDS011;592;48.764;9.174;2023-03-04T12:00:21;54.30;;;29.10;;
1204;SDS011;592;48.764;9.174;2023-03-04T12:03:06;53.53;;;29.20;;
1204;SDS011;592;48.764;9.174;2023-03-04T12:05:52;51.73;;;28.20;;
1204;SDS011;592;48.764;9.174;2023-03-04T12:11:15;51.90;;;29.90;;
1204;SDS011;592;48.764;9.174;2023-03-04T12:13:55;55.80;;;28.77;;
1204;SDS011;592;48.764;9.174;2023-03-04T12:16:45;54.80;;;31.47;;
1204;SDS011;592;48.764;9.174;2023-03-04T12:19:35;54.50;;;29.07;;
1204;SDS011;592;48.764;9.174;2023-03-04T12:22:18;59.27;;;30.57;;
1204;SDS011;592;48.764;9.174;2023-03-04T12:25:02;53.23;;;27.93;;
1204;SDS011;592;48.764;9.174;2023-03-04T12:27:51;50.17;;;28.87;;
1204;SDS011;592;48.764;9.174;2023-03-04T12:30:29;52.63;;;28.90;;
1204;SDS011;592;48.764;9.174;2023-03-04T12:33:05;54.40;;;29.03;;
1204;SDS011;592;48.764;9.174;2023-03-04T12:35:41;52.80;;;28.53;;
1204;SDS011;592;48.764;9.174;2023-03-04T12:38:18;48.83;;;27.33;;
1204;SDS011;592;48.764;9.174;2023-03-04T12:40:57;50.07;;;27.00;;
1204;SDS011;592;48.764;9.174;2023-03-04T12:43:41;58.50;;;29.03;;
1204;SDS011;592;48.764;9.174;2023-03-04T12:46:19;48.90;;;29.03;;
1204;SDS011;592;48.764;9.174;2023-03-04T12:48:54;53.30;;;29.43;;
1204;SDS011;592;48.764;9.174;2023-03-04T12:51:35;48.83;;;28.60;;
1204;SDS011;592;48.764;9.174;2023-03-04T12:54:13;47.20;;;27.67;;
1204;SDS011;592;48.764;9.174;2023-03-04T12:56:50;53.43;;;30.07;;
1204;SDS011;592;48.764;9.174;2023-03-04T12:59:21;56.23;;;30.90;;
1204;SDS011;592;48.764;9.174;2023-03-04T13:01:54;58.97;;;31.17;;
1204;SDS011;592;48.764;9.174;2023-03-04T13:04:28;62.87;;;28.40;;
1204;SDS011;592;48.764;9.174;2023-03-04T13:07:03;54.97;;;28.40;;
1204;SDS011;592;48.764;9.174;2023-03-04T13:09:37;57.07;;;31.57;;
1204;SDS011;592;48.764;9.174;2023-03-04T13:12:13;63.37;;;32.70;;
1204;SDS011;592;48.764;9.174;2023-03-04T13:17:45;57.10;;;31.00;;
1204;SDS011;592;48.764;9.174;2023-03-04T13:20:18;64.20;;;31.00;;
1204;SDS011;592;48.764;9.174;2023-03-04T13:22:54;63.00;;;30.73;;
1204;SDS011;592;48.764;9.174;2023-03-04T13:25:32;56.23;;;30.80;;
1204;SDS011;592;48.764;9.174;2023-03-04T13:28:14;58.07;;;29.90;;
1204;SDS011;592;48.764;9.174;2023-03-04T13:33:47;56.90;;;29.17;;
1204;SDS011;592;48.764;9.174;2023-03-04T13:39:32;57.50;;;29.23;;
1204;SDS011;592;48.764;9.174;2023-03-04T13:42:00;55.00;;;27.53;;
1204;SDS011;592;48.764;9.174;2023-03-04T13:44:33;51.23;;;27.33;;
1204;SDS011;592;48.764;9.174;2023-03-04T13:47:41;47.27;;;26.47;;
1204;SDS011;592;48.764;9.174;2023-03-04T13:50:28;51.27;;;26.90;;
1204;SDS011;592;48.764;9.174;2023-03-04T13:53:00;54.13;;;25.67;;
1204;SDS011;592;48.764;9.174;2023-03-04T13:56:09;47.30;;;25.50;;
1204;SDS011;592;48.764;9.174;2023-03-04T13:58:45;39.70;;;21.17;;
1204;SDS011;592;48.764;9.174;2023-03-04T14:01:24;39.40;;;21.70;;
1204;SDS011;592;48.764;9.174;2023-03-04T14:03:53;41.03;;;21.63;;
1204;SDS011;592;48.764;9.174;2023-03-04T14:06:22;46.83;;;22.63;;
1204;SDS011;592;48.764;9.174;2023-03-04T14:08:50;42.03;;;22.60;;
1204;SDS011;592;48.764;9.174;2023-03-04T14:11:23;36.43;;;22.93;;
1204;SDS011;592;48.764;9.174;2023-03-04T14:13:52;37.23;;;20.80;;
1204;SDS011;592;48.764;9.174;2023-03-04T14:16:22;40.50;;;21.00;;
1204;SDS011;592;48.764;9.174;2023-03-04T14:18:56;41.60;;;18.90;;
1204;SDS011;592;48.764;9.174;2023-03-04T14:21:26;35.47;;;19.10;;
1204;SDS011;592;48.764;9.174;2023-03-04T14:24:00;37.57;;;19.83;;
1204;SDS011;592;48.764;9.174;2023-03-04T14:26:28;34.90;;;18.10;;
1204;SDS011;592;48.764;9.174;2023-03-04T14:28:56;39.47;;;20.73;;
1204;SDS011;592;48.764;9.174;2023-03-04T14:31:24;35.80;;;21.07;;
1204;SDS011;592;48.764;9.174;2023-03-04T14:33:54;37.50;;;19.73;;
1204;SDS011;592;48.764;9.174;2023-03-04T14:36:27;39.83;;;19.60;;
1204;SDS011;592;48.764;9.174;2023-03-04T14:38:57;37.30;;;19.67;;
1204;SDS011;592;48.764;9.174;2023-03-04T14:41:27;38.17;;;19.40;;
1204;SDS011;592;48.764;9.174;2023-03-04T14:43:58;40.00;;;21.17;;
1204;SDS011;592;48.764;9.174;2023-03-04T14:46:32;33.40;;;18.30;;
1204;SDS011;592;48.764;9.174;2023-03-04T14:49:04;37.73;;;19.63;;
1204;SDS011;592;48.764;9.174;2023-03-04T14:51:40;41.37;;;20.07;;
1204;SDS011;592;48.764;9.174;2023-03-04T14:54:24;36.20;;;18.97;;
1204;SDS011;592;48.764;9.174;2023-03-04T14:56:59;36.13;;;18.87;;
1204;SDS011;592;48.764;9.174;2023-03-04T14:59:39;38.90;;;20.50;;
1204;SDS011;592;48.764;9.174;2023-03-04T15:02:15;46.30;;;21.47;;
1204;SDS011;592;48.764;9.174;2023-03-04T15:04:45;44.63;;;22.73;;
1204;SDS011;592;48.764;9.174;2023-03-04T15:07:15;49.43;;;23.03;;
1204;SDS011;592;48.764;9.174;2023-03-04T15:09:54;42.77;;;20.90;;
1204;SDS011;592;48.764;9.174;2023-03-04T15:12:25;40.13;;;19.83;;
1204;SDS011;592;48.764;9.174;2023-03-04T15:14:54;45.90;;;22.67;;
1204;SDS011;592;48.764;9.174;2023-03-04T15:20:01;39.13;;;20.90;;
1204;SDS011;592;48.764;9.174;2023-03-04T15:22:58;39.53;;;19.83;;
1204;SDS011;592;48.764;9.174;2023-03-04T15:25:26;39.63;;;19.97;;
1204;SDS011;592;48.764;9.174;2023-03-04T15:27:53;42.73;;;21.47;;
1204;SDS011;592;48.764;9.174;2023-03-04T15:30:22;38.43;;;20.60;;
1204;SDS011;592;48.764;9.174;2023-03-04T15:32:51;44.63;;;20.87;;